Time,TemperatureF,DewpointF,PressureIn,WindDirection,WindDirectionDegrees,WindSpeedMPH,WindSpeedGustMPH,Humidity,HourlyPrecipIn,Conditions,Clouds,dailyrainin,SolarRadiationWatts/m^2,SoftwareType,DateUTC
2013-04-12 00:22:00,32.0,31.0,-100.00,ESE,102,4.0,13.0,95,0.00,,,0.02,0.000000,,2013-04-12 08:22:00,
2013-04-12 00:32:00,32.0,31.0,-100.00,ESE,102,4.0,13.0,95,0.00,,,0.02,0.000000,,2013-04-12 08:32:00,
2013-04-12 00:42:00,32.0,31.0,-100.00,ESE,102,4.0,13.0,95,0.00,,,0.02,0.000000,,2013-04-12 08:42:00,
2013-04-12 00:52:00,32.0,31.0,-100.00,ESE,102,4.0,13.0,95,0.00,,,0.02,0.000000,,2013-04-12 08:52:00,
2013-04-12 01:22:00,33.0,32.0,-100.00,ESE,108,5.0,10.0,96,0.00,,,0.02,0.000000,,2013-04-12 09:22:00,
2013-04-12 01:32:00,33.0,32.0,-100.00,ESE,108,5.0,10.0,96,0.00,,,0.02,0.000000,,2013-04-12 09:32:00,
2013-04-12 01:43:00,33.0,32.0,-100.00,ESE,108,5.0,10.0,96,0.00,,,0.02,0.000000,,2013-04-12 09:43:00,
2013-04-12 02:22:00,32.0,30.0,-100.00,East,94,3.0,9.0,94,0.00,,,0.02,0.000000,,2013-04-12 10:22:00,
2013-04-12 02:33:00,32.0,30.0,-100.00,East,94,3.0,9.0,94,0.00,,,0.02,0.000000,,2013-04-12 10:33:00,
2013-04-12 02:42:00,32.0,30.0,-100.00,East,94,3.0,9.0,94,0.00,,,0.02,0.000000,,2013-04-12 10:42:00,
2013-04-12 02:52:00,32.0,30.0,-100.00,East,94,3.0,9.0,94,0.00,,,0.02,0.000000,,2013-04-12 10:52:00,
2013-04-12 03:22:00,33.0,30.0,-100.00,ENE,73,5.0,8.0,90,0.00,,,0.02,0.000000,,2013-04-12 11:22:00,
2013-04-12 03:32:00,33.0,30.0,-100.00,ENE,73,5.0,8.0,90,0.00,,,0.02,0.000000,,2013-04-12 11:32:00,
2013-04-12 03:42:00,33.0,30.0,-100.00,ENE,73,5.0,8.0,90,0.00,,,0.02,0.000000,,2013-04-12 11:42:00,
2013-04-12 03:52:00,33.0,30.0,-100.00,ENE,73,5.0,8.0,90,0.00,,,0.02,0.000000,,2013-04-12 11:52:00,
2013-04-12 04:22:00,33.0,29.0,-100.00,East,84,6.0,15.0,86,0.00,,,0.02,0.000000,,2013-04-12 12:22:00,
2013-04-12 04:32:00,33.0,29.0,-100.00,East,84,6.0,15.0,86,0.00,,,0.02,0.000000,,2013-04-12 12:32:00,
2013-04-12 04:42:00,33.0,29.0,-100.00,East,84,6.0,15.0,86,0.00,,,0.02,0.000000,,2013-04-12 12:42:00,
2013-04-12 04:52:00,33.0,29.0,-100.00,East,84,6.0,15.0,86,0.00,,,0.02,0.000000,,2013-04-12 12:52:00,
2013-04-12 05:22:00,34.0,29.0,-100.00,ENE,74,6.0,16.0,83,0.00,,,0.02,0.000000,,2013-04-12 13:22:00,
2013-04-12 05:32:00,34.0,29.0,-100.00,ENE,74,6.0,16.0,83,0.00,,,0.02,0.000000,,2013-04-12 13:32:00,
2013-04-12 05:42:00,34.0,29.0,-100.00,ENE,74,6.0,16.0,83,0.00,,,0.02,0.000000,,2013-04-12 13:42:00,
2013-04-12 05:52:00,34.0,29.0,-100.00,ENE,74,6.0,16.0,83,0.00,,,0.02,0.000000,,2013-04-12 13:52:00,
2013-04-12 06:22:00,34.0,30.0,-100.00,NE,44,7.0,13.0,84,0.00,,,0.02,0.000000,,2013-04-12 14:22:00,
2013-04-12 06:32:00,34.0,30.0,-100.00,NE,44,7.0,13.0,84,0.00,,,0.02,0.000000,,2013-04-12 14:32:00,
2013-04-12 06:42:00,34.0,30.0,-100.00,NE,44,7.0,13.0,84,0.00,,,0.02,0.000000,,2013-04-12 14:42:00,
2013-04-12 06:52:00,34.0,30.0,-100.00,NE,44,7.0,13.0,84,0.00,,,0.02,0.000000,,2013-04-12 14:52:00,
2013-04-12 07:22:00,33.0,29.0,-100.00,NNE,16,7.0,14.0,86,0.00,,,-99.99,10.000000,,2013-04-12 15:22:00,
2013-04-12 07:33:00,33.0,29.0,-100.00,NNE,16,7.0,14.0,86,0.00,,,-99.99,10.000000,,2013-04-12 15:33:00,
2013-04-12 07:43:00,33.0,29.0,-100.00,NNE,16,7.0,14.0,86,0.00,,,-99.99,10.000000,,2013-04-12 15:43:00,
2013-04-12 07:52:00,33.0,29.0,-100.00,NNE,16,7.0,14.0,86,0.00,,,-99.99,10.000000,,2013-04-12 15:52:00,
2013-04-12 08:22:00,34.0,31.0,-100.00,NNE,12,9.0,19.0,87,0.00,,,-99.99,56.000000,,2013-04-12 16:22:00,
2013-04-12 08:33:00,34.0,31.0,-100.00,NNE,12,9.0,19.0,87,0.00,,,-99.99,56.000000,,2013-04-12 16:33:00,
2013-04-12 08:42:00,34.0,31.0,-100.00,NNE,12,9.0,19.0,87,0.00,,,-99.99,56.000000,,2013-04-12 16:42:00,
2013-04-12 08:52:00,34.0,31.0,-100.00,NNE,12,9.0,19.0,87,0.00,,,-99.99,56.000000,,2013-04-12 16:52:00,
2013-04-12 08:55:00,34.0,33.0,-100.00,North,359,9.0,15.0,96,0.00,,,0.01,113.000000,,2013-04-12 16:55:00,
2013-04-12 09:22:00,34.0,33.0,-100.00,North,359,9.0,15.0,96,0.00,,,0.01,113.000000,,2013-04-12 17:22:00,
2013-04-12 09:33:00,34.0,33.0,-100.00,North,359,9.0,15.0,96,0.00,,,0.01,113.000000,,2013-04-12 17:33:00,
2013-04-12 09:44:00,34.0,33.0,-100.00,North,359,9.0,15.0,96,0.00,,,0.01,113.000000,,2013-04-12 17:44:00,
2013-04-12 11:26:00,38.0,31.0,-100.00,North,0,7.0,13.0,76,0.00,,,0.01,195.000000,,2013-04-12 19:26:00,
2013-04-12 11:32:00,38.0,31.0,-100.00,North,0,7.0,13.0,76,0.00,,,0.01,195.000000,,2013-04-12 19:32:00,
2013-04-12 11:42:00,38.0,31.0,-100.00,North,0,7.0,13.0,76,0.00,,,0.01,195.000000,,2013-04-12 19:42:00,
2013-04-12 11:52:00,38.0,31.0,-100.00,North,0,7.0,13.0,76,0.00,,,0.01,195.000000,,2013-04-12 19:52:00,
2013-04-12 12:22:00,40.0,30.0,-100.00,NNE,22,7.0,14.0,68,0.00,,,0.00,306.000000,,2013-04-12 20:22:00,
2013-04-12 12:32:00,40.0,30.0,-100.00,NNE,22,7.0,14.0,68,0.00,,,0.00,306.000000,,2013-04-12 20:32:00,
2013-04-12 12:42:00,40.0,30.0,-100.00,NNE,22,7.0,14.0,68,0.00,,,0.00,306.000000,,2013-04-12 20:42:00,
2013-04-12 12:52:00,40.0,30.0,-100.00,NNE,22,7.0,14.0,68,0.00,,,0.00,306.000000,,2013-04-12 20:52:00,
2013-04-12 13:22:00,40.0,28.0,-100.00,NNE,26,9.0,16.0,61,0.00,,,0.00,333.000000,,2013-04-12 21:22:00,
2013-04-12 13:32:00,40.0,28.0,-100.00,NNE,26,9.0,16.0,61,0.00,,,0.00,333.000000,,2013-04-12 21:32:00,
2013-04-12 13:42:00,40.0,28.0,-100.00,NNE,26,9.0,16.0,61,0.00,,,0.00,333.000000,,2013-04-12 21:42:00,
2013-04-12 13:52:00,40.0,28.0,-100.00,NNE,26,9.0,16.0,61,0.00,,,0.00,333.000000,,2013-04-12 21:52:00,
2013-04-12 14:22:00,42.0,28.0,-100.00,NNW,336,8.0,14.0,58,0.00,,,0.00,270.000000,,2013-04-12 22:22:00,
2013-04-12 14:32:00,42.0,28.0,-100.00,NNW,336,8.0,14.0,58,0.00,,,0.00,270.000000,,2013-04-12 22:32:00,
2013-04-12 14:42:00,42.0,28.0,-100.00,NNW,336,8.0,14.0,58,0.00,,,0.00,270.000000,,2013-04-12 22:42:00,
2013-04-12 14:52:00,42.0,28.0,-100.00,NNW,336,8.0,14.0,58,0.00,,,0.00,270.000000,,2013-04-12 22:52:00,
2013-04-12 15:22:00,45.0,25.0,-100.00,NNW,330,10.0,16.0,46,0.00,,,0.00,599.000000,,2013-04-12 23:22:00,
2013-04-12 15:32:00,45.0,25.0,-100.00,NNW,330,10.0,16.0,46,0.00,,,0.00,599.000000,,2013-04-12 23:32:00,
2013-04-12 15:42:00,45.0,25.0,-100.00,NNW,330,10.0,16.0,46,0.00,,,0.00,599.000000,,2013-04-12 23:42:00,
2013-04-12 15:52:00,45.0,25.0,-100.00,NNW,330,10.0,16.0,46,0.00,,,0.00,599.000000,,2013-04-12 23:52:00,
2013-04-12 16:22:00,47.0,25.0,-100.00,NW,317,11.0,19.0,41,0.00,,,0.00,684.000000,,2013-04-13 00:22:00,
2013-04-12 16:32:00,47.0,25.0,-100.00,NW,317,11.0,19.0,41,0.00,,,0.00,684.000000,,2013-04-13 00:32:00,
2013-04-12 16:42:00,47.0,25.0,-100.00,NW,317,11.0,19.0,41,0.00,,,0.00,684.000000,,2013-04-13 00:42:00,
2013-04-12 16:52:00,47.0,25.0,-100.00,NW,317,11.0,19.0,41,0.00,,,0.00,684.000000,,2013-04-13 00:52:00,
2013-04-12 17:22:00,47.0,26.0,-100.00,NNW,327,10.0,18.0,43,0.00,,,0.00,426.000000,,2013-04-13 01:22:00,
2013-04-12 17:32:00,47.0,26.0,-100.00,NNW,327,10.0,18.0,43,0.00,,,0.00,426.000000,,2013-04-13 01:32:00,
2013-04-12 17:42:00,47.0,26.0,-100.00,NNW,327,10.0,18.0,43,0.00,,,0.00,426.000000,,2013-04-13 01:42:00,
2013-04-12 17:52:00,47.0,26.0,-100.00,NNW,327,10.0,18.0,43,0.00,,,0.00,426.000000,,2013-04-13 01:52:00,
2013-04-12 18:22:00,44.0,23.0,-100.00,NW,311,12.0,17.0,44,0.00,,,0.00,294.000000,,2013-04-13 02:22:00,
2013-04-12 18:32:00,44.0,23.0,-100.00,NW,311,12.0,17.0,44,0.00,,,0.00,294.000000,,2013-04-13 02:32:00,
2013-04-12 18:42:00,44.0,23.0,-100.00,NW,311,12.0,17.0,44,0.00,,,0.00,294.000000,,2013-04-13 02:42:00,
2013-04-12 18:52:00,44.0,23.0,-100.00,NW,311,12.0,17.0,44,0.00,,,0.00,294.000000,,2013-04-13 02:52:00,
2013-04-12 19:22:00,42.0,22.0,-100.00,NW,313,7.0,16.0,44,0.00,,,0.00,133.000000,,2013-04-13 03:22:00,
2013-04-12 19:33:00,42.0,22.0,-100.00,NW,313,7.0,16.0,44,0.00,,,0.00,133.000000,,2013-04-13 03:33:00,
2013-04-12 19:42:00,42.0,22.0,-100.00,NW,313,7.0,16.0,44,0.00,,,0.00,133.000000,,2013-04-13 03:42:00,
2013-04-12 19:52:00,42.0,22.0,-100.00,NW,313,7.0,16.0,44,0.00,,,0.00,133.000000,,2013-04-13 03:52:00,
2013-04-12 20:23:00,40.0,22.0,-100.00,NW,314,9.0,14.0,48,0.00,,,0.00,28.000000,,2013-04-13 04:23:00,
2013-04-12 20:33:00,40.0,22.0,-100.00,NW,314,9.0,14.0,48,0.00,,,0.00,28.000000,,2013-04-13 04:33:00,
2013-04-12 20:42:00,40.0,22.0,-100.00,NW,314,9.0,14.0,48,0.00,,,0.00,28.000000,,2013-04-13 04:42:00,
2013-04-12 20:53:00,40.0,22.0,-100.00,NW,314,9.0,14.0,48,0.00,,,0.00,28.000000,,2013-04-13 04:53:00,
2013-04-12 21:22:00,39.0,21.0,-100.00,NW,317,7.0,13.0,49,0.00,,,0.00,2.000000,,2013-04-13 05:22:00,
2013-04-12 21:32:00,39.0,21.0,-100.00,NW,317,7.0,13.0,49,0.00,,,0.00,2.000000,,2013-04-13 05:32:00,
2013-04-12 21:42:00,39.0,21.0,-100.00,NW,317,7.0,13.0,49,0.00,,,0.00,2.000000,,2013-04-13 05:42:00,
2013-04-12 21:52:00,39.0,21.0,-100.00,NW,317,7.0,13.0,49,0.00,,,0.00,2.000000,,2013-04-13 05:52:00,
2013-04-12 22:23:00,39.0,22.0,-100.00,NW,310,8.0,15.0,51,0.00,,,0.00,0.000000,,2013-04-13 06:23:00,
2013-04-12 22:34:00,39.0,22.0,-100.00,NW,310,8.0,15.0,51,0.00,,,0.00,0.000000,,2013-04-13 06:34:00,
2013-04-12 22:53:00,39.0,22.0,-100.00,NW,310,8.0,15.0,51,0.00,,,0.00,0.000000,,2013-04-13 06:53:00,
2013-04-12 23:23:00,38.0,20.0,-100.00,NW,321,7.0,14.0,48,0.00,,,0.00,0.000000,,2013-04-13 07:23:00,
2013-04-12 23:33:00,38.0,20.0,-100.00,NW,321,7.0,14.0,48,0.00,,,0.00,0.000000,,2013-04-13 07:33:00,
2013-04-12 23:44:00,38.0,20.0,-100.00,NW,321,7.0,14.0,48,0.00,,,0.00,0.000000,,2013-04-13 07:44:00,
2013-04-12 23:53:00,38.0,20.0,-100.00,NW,321,7.0,14.0,48,0.00,,,0.00,0.000000,,2013-04-13 07:53:00,